DLH1242 EDDF-LOWW
Flight info
| Callsign | DLH1242 |
|---|---|
| Flight time | 1h 20m |
| Altitude | 31000 |
| Route | SULUS7S/18 SULUS Z650 VEMUT/N0398F290 DCT BUDEX BUDEX2W |
| Aircraft | A320/M-SDE2E3FGIJ1LORWXYZ/HB1 |
Departure
| Time | 2026-05-06 18:58 |
|---|---|
| Airport | Frankfurt Main Airport (EDDF) |
Arrival
| Time | 2026-05-06 20:18 |
|---|---|
| Airport | Vienna International Airport (LOWW) |
| Time | Latitude | Longitude | Altitude | Speed | Heading |
|---|---|---|---|---|---|
| 2026-05-06 18:23 | 50.04980 | 8.57687 | 357 ft | 0 kts | 24° |
| 2026-05-06 18:45 | 50.04958 | 8.57672 | 361 ft | 4 kts | 24° |
| 2026-05-06 18:45 | 50.04942 | 8.57661 | 362 ft | 4 kts | 27° |
| 2026-05-06 18:46 | 50.04916 | 8.57628 | 361 ft | 4 kts | 69° |
| 2026-05-06 18:46 | 50.04914 | 8.57599 | 356 ft | 1 kts | 115° |
| 2026-05-06 18:46 | 50.04916 | 8.57593 | 356 ft | 0 kts | 115° |
| 2026-05-06 18:49 | 50.04913 | 8.57602 | 356 ft | 7 kts | 115° |
| 2026-05-06 18:49 | 50.04871 | 8.57753 | 363 ft | 15 kts | 112° |
| 2026-05-06 18:50 | 50.04827 | 8.57880 | 361 ft | 12 kts | 137° |
| 2026-05-06 18:50 | 50.04763 | 8.57929 | 359 ft | 9 kts | 160° |
| 2026-05-06 18:50 | 50.04722 | 8.57927 | 361 ft | 6 kts | 219° |
| 2026-05-06 18:50 | 50.04692 | 8.57833 | 360 ft | 10 kts | 249° |
| 2026-05-06 18:51 | 50.04675 | 8.57766 | 360 ft | 9 kts | 249° |
| 2026-05-06 18:51 | 50.04655 | 8.57682 | 360 ft | 7 kts | 249° |
| 2026-05-06 18:51 | 50.04635 | 8.57599 | 358 ft | 13 kts | 250° |
| 2026-05-06 18:51 | 50.04594 | 8.57425 | 361 ft | 13 kts | 250° |
| 2026-05-06 18:52 | 50.04572 | 8.57328 | 358 ft | 16 kts | 251° |
| 2026-05-06 18:52 | 50.04530 | 8.57153 | 361 ft | 18 kts | 251° |
| 2026-05-06 18:52 | 50.04482 | 8.56956 | 364 ft | 20 kts | 249° |
| 2026-05-06 18:52 | 50.04435 | 8.56757 | 361 ft | 20 kts | 250° |
| 2026-05-06 18:53 | 50.04386 | 8.56552 | 358 ft | 20 kts | 250° |
| 2026-05-06 18:53 | 50.04336 | 8.56341 | 363 ft | 21 kts | 250° |
| 2026-05-06 18:53 | 50.04282 | 8.56117 | 362 ft | 25 kts | 249° |
| 2026-05-06 18:53 | 50.04222 | 8.55865 | 361 ft | 25 kts | 250° |
| 2026-05-06 18:54 | 50.04163 | 8.55616 | 360 ft | 24 kts | 250° |
| 2026-05-06 18:54 | 50.04104 | 8.55372 | 357 ft | 24 kts | 250° |
| 2026-05-06 18:54 | 50.04048 | 8.55138 | 358 ft | 23 kts | 250° |
| 2026-05-06 18:54 | 50.03991 | 8.54903 | 357 ft | 24 kts | 250° |
| 2026-05-06 18:55 | 50.03931 | 8.54652 | 355 ft | 26 kts | 250° |
| 2026-05-06 18:55 | 50.03865 | 8.54386 | 352 ft | 27 kts | 241° |
| 2026-05-06 18:55 | 50.03776 | 8.54125 | 350 ft | 28 kts | 250° |
| 2026-05-06 18:55 | 50.03708 | 8.53840 | 349 ft | 28 kts | 249° |
| 2026-05-06 18:56 | 50.03642 | 8.53570 | 337 ft | 25 kts | 246° |
| 2026-05-06 18:56 | 50.03579 | 8.53309 | 340 ft | 26 kts | 250° |
| 2026-05-06 18:56 | 50.03513 | 8.53038 | 335 ft | 27 kts | 250° |
| 2026-05-06 18:56 | 50.03451 | 8.52793 | 335 ft | 20 kts | 248° |
| 2026-05-06 18:57 | 50.03382 | 8.52606 | 333 ft | 20 kts | 204° |
| 2026-05-06 18:57 | 50.03215 | 8.52595 | 336 ft | 43 kts | 180° |
| 2026-05-06 18:57 | 50.02670 | 8.52600 | 332 ft | 112 kts | 179° |
| 2026-05-06 18:57 | 50.01698 | 8.52592 | 349 ft | 164 kts | 183° |
| 2026-05-06 18:58 | 50.00529 | 8.52617 | 904 ft | 170 kts | 182° |
| 2026-05-06 18:58 | 49.99342 | 8.52640 | 1659 ft | 172 kts | 182° |
| 2026-05-06 18:58 | 49.98082 | 8.52653 | 2091 ft | 192 kts | 179° |
| 2026-05-06 18:58 | 49.96732 | 8.53305 | 2415 ft | 219 kts | 145° |
| 2026-05-06 18:59 | 49.95718 | 8.55188 | 2962 ft | 236 kts | 118° |
| 2026-05-06 18:59 | 49.94921 | 8.57453 | 3701 ft | 243 kts | 120° |
| 2026-05-06 18:59 | 49.94209 | 8.59832 | 3938 ft | 245 kts | 106° |
| 2026-05-06 18:59 | 49.93992 | 8.62592 | 4234 ft | 271 kts | 94° |
| 2026-05-06 19:00 | 49.93872 | 8.65569 | 5026 ft | 280 kts | 98° |
| 2026-05-06 19:00 | 49.93350 | 8.68483 | 5905 ft | 282 kts | 118° |
| 2026-05-06 19:00 | 49.92254 | 8.70993 | 6797 ft | 282 kts | 137° |
| 2026-05-06 19:00 | 49.90730 | 8.72900 | 7678 ft | 282 kts | 148° |
| 2026-05-06 19:01 | 49.89151 | 8.74737 | 8564 ft | 288 kts | 140° |
| 2026-05-06 19:01 | 49.87837 | 8.77124 | 9441 ft | 295 kts | 125° |
| 2026-05-06 19:01 | 49.86814 | 8.79927 | 10148 ft | 306 kts | 121° |
| 2026-05-06 19:01 | 49.85741 | 8.82919 | 10457 ft | 328 kts | 121° |
| 2026-05-06 19:02 | 49.84607 | 8.86061 | 10764 ft | 337 kts | 121° |
| 2026-05-06 19:02 | 49.83459 | 8.89233 | 10826 ft | 338 kts | 121° |
| 2026-05-06 19:02 | 49.82323 | 8.92367 | 10827 ft | 338 kts | 121° |
| 2026-05-06 19:02 | 49.81175 | 8.95538 | 10829 ft | 338 kts | 121° |
| 2026-05-06 19:03 | 49.80009 | 8.98740 | 11338 ft | 343 kts | 121° |
| 2026-05-06 19:03 | 49.78835 | 9.01955 | 12275 ft | 343 kts | 121° |
| 2026-05-06 19:03 | 49.77657 | 9.05181 | 13124 ft | 345 kts | 121° |
| 2026-05-06 19:03 | 49.76513 | 9.08469 | 13874 ft | 350 kts | 115° |
| 2026-05-06 19:04 | 49.75731 | 9.12049 | 14554 ft | 354 kts | 105° |
| 2026-05-06 19:04 | 49.75145 | 9.15772 | 15241 ft | 357 kts | 105° |
| 2026-05-06 19:04 | 49.74554 | 9.19512 | 15933 ft | 359 kts | 105° |
| 2026-05-06 19:04 | 49.74101 | 9.23325 | 16596 ft | 364 kts | 94° |
| 2026-05-06 19:05 | 49.74405 | 9.27230 | 17239 ft | 371 kts | 74° |
| 2026-05-06 19:05 | 49.75261 | 9.31006 | 17915 ft | 374 kts | 71° |
| 2026-05-06 19:05 | 49.76155 | 9.34799 | 18515 ft | 377 kts | 71° |
| 2026-05-06 19:05 | 49.77061 | 9.38618 | 19083 ft | 380 kts | 71° |
| 2026-05-06 19:06 | 49.77972 | 9.42472 | 19641 ft | 383 kts | 71° |
| 2026-05-06 19:06 | 49.78882 | 9.46355 | 20204 ft | 386 kts | 71° |
| 2026-05-06 19:06 | 49.79796 | 9.50274 | 20771 ft | 388 kts | 71° |
| 2026-05-06 19:06 | 49.80714 | 9.54227 | 21300 ft | 392 kts | 72° |
| 2026-05-06 19:07 | 49.81639 | 9.58222 | 21777 ft | 397 kts | 72° |
| 2026-05-06 19:07 | 49.82575 | 9.62267 | 22284 ft | 400 kts | 72° |
| 2026-05-06 19:07 | 49.83515 | 9.66335 | 22789 ft | 404 kts | 72° |
| 2026-05-06 19:07 | 49.84464 | 9.70450 | 23291 ft | 407 kts | 72° |
| 2026-05-06 19:08 | 49.85420 | 9.74596 | 23731 ft | 410 kts | 72° |
| 2026-05-06 19:08 | 49.86381 | 9.78766 | 24169 ft | 412 kts | 72° |
| 2026-05-06 19:08 | 49.87345 | 9.82959 | 24610 ft | 414 kts | 72° |
| 2026-05-06 19:08 | 49.88314 | 9.87180 | 25044 ft | 416 kts | 72° |
| 2026-05-06 19:09 | 49.89282 | 9.91414 | 25477 ft | 418 kts | 73° |
| 2026-05-06 19:09 | 49.90255 | 9.95678 | 25902 ft | 420 kts | 73° |
| 2026-05-06 19:09 | 49.91220 | 9.99918 | 26320 ft | 422 kts | 73° |
| 2026-05-06 19:09 | 49.92197 | 10.04220 | 26713 ft | 424 kts | 74° |
| 2026-05-06 19:10 | 49.93182 | 10.08567 | 27004 ft | 429 kts | 75° |
| 2026-05-06 19:10 | 49.94103 | 10.12983 | 27330 ft | 430 kts | 82° |
| 2026-05-06 19:10 | 49.94375 | 10.17558 | 27685 ft | 423 kts | 97° |
| 2026-05-06 19:10 | 49.94176 | 10.22118 | 28065 ft | 424 kts | 99° |
| 2026-05-06 19:11 | 49.93956 | 10.26688 | 28445 ft | 426 kts | 99° |
| 2026-05-06 19:11 | 49.93725 | 10.31285 | 28831 ft | 428 kts | 99° |
| 2026-05-06 19:11 | 49.93490 | 10.35901 | 29212 ft | 430 kts | 99° |
| 2026-05-06 19:11 | 49.93252 | 10.40543 | 29594 ft | 432 kts | 99° |
| 2026-05-06 19:12 | 49.93013 | 10.45201 | 29950 ft | 434 kts | 99° |
| 2026-05-06 19:12 | 49.92772 | 10.49879 | 30236 ft | 437 kts | 99° |
| 2026-05-06 19:12 | 49.92530 | 10.54600 | 30449 ft | 441 kts | 100° |
| 2026-05-06 19:12 | 49.92285 | 10.59362 | 30697 ft | 444 kts | 100° |
| 2026-05-06 19:13 | 49.92037 | 10.64148 | 30943 ft | 447 kts | 100° |
| 2026-05-06 19:13 | 49.91786 | 10.68968 | 31166 ft | 449 kts | 100° |
| 2026-05-06 19:13 | 49.91531 | 10.73809 | 31466 ft | 451 kts | 100° |
| 2026-05-06 19:13 | 49.91275 | 10.78662 | 31811 ft | 451 kts | 100° |
| 2026-05-06 19:14 | 49.91018 | 10.83509 | 32151 ft | 451 kts | 100° |
| 2026-05-06 19:14 | 49.90758 | 10.88364 | 32483 ft | 452 kts | 100° |
| 2026-05-06 19:14 | 49.90493 | 10.93216 | 32817 ft | 452 kts | 100° |
| 2026-05-06 19:14 | 49.90220 | 10.98099 | 33053 ft | 455 kts | 101° |
| 2026-05-06 19:15 | 49.89941 | 11.03013 | 33243 ft | 459 kts | 101° |
| 2026-05-06 19:15 | 49.89661 | 11.07956 | 33528 ft | 461 kts | 101° |
| 2026-05-06 19:15 | 49.89381 | 11.12915 | 33841 ft | 462 kts | 101° |
| 2026-05-06 19:15 | 49.89102 | 11.17881 | 34127 ft | 462 kts | 101° |
| 2026-05-06 19:16 | 49.88823 | 11.22844 | 34417 ft | 462 kts | 100° |
| 2026-05-06 19:16 | 49.88540 | 11.27798 | 34700 ft | 462 kts | 100° |
| 2026-05-06 19:16 | 49.88253 | 11.32761 | 34796 ft | 459 kts | 100° |
| 2026-05-06 19:17 | 49.87684 | 11.42513 | 34789 ft | 452 kts | 101° |
| 2026-05-06 19:17 | 49.87105 | 11.52168 | 34808 ft | 453 kts | 101° |
| 2026-05-06 19:18 | 49.86513 | 11.61891 | 34805 ft | 453 kts | 101° |
| 2026-05-06 19:18 | 49.85916 | 11.71604 | 34801 ft | 453 kts | 101° |
| 2026-05-06 19:19 | 49.85316 | 11.81309 | 34797 ft | 452 kts | 101° |
| 2026-05-06 19:19 | 49.84706 | 11.91021 | 34772 ft | 452 kts | 101° |
| 2026-05-06 19:20 | 49.84087 | 12.00718 | 34777 ft | 452 kts | 102° |
| 2026-05-06 19:20 | 49.83462 | 12.10411 | 34782 ft | 452 kts | 102° |
| 2026-05-06 19:21 | 49.82824 | 12.20100 | 34785 ft | 452 kts | 102° |
| 2026-05-06 19:21 | 49.82172 | 12.29787 | 34784 ft | 452 kts | 102° |
| 2026-05-06 19:22 | 49.81500 | 12.39473 | 34760 ft | 451 kts | 105° |
| 2026-05-06 19:22 | 49.79712 | 12.48578 | 34760 ft | 436 kts | 123° |
| 2026-05-06 19:23 | 49.76512 | 12.56391 | 34756 ft | 428 kts | 132° |
| 2026-05-06 19:23 | 49.73110 | 12.63968 | 34758 ft | 429 kts | 131° |
| 2026-05-06 19:24 | 49.69718 | 12.71567 | 34730 ft | 430 kts | 131° |
| 2026-05-06 19:24 | 49.66316 | 12.79162 | 34746 ft | 430 kts | 131° |
| 2026-05-06 19:25 | 49.62898 | 12.86754 | 34756 ft | 431 kts | 132° |
| 2026-05-06 19:25 | 49.59474 | 12.94351 | 34748 ft | 431 kts | 132° |
| 2026-05-06 19:26 | 49.56043 | 13.01930 | 34755 ft | 431 kts | 132° |
| 2026-05-06 19:26 | 49.52600 | 13.09496 | 34758 ft | 431 kts | 132° |
| 2026-05-06 19:27 | 49.49157 | 13.17056 | 34769 ft | 431 kts | 132° |
| 2026-05-06 19:27 | 49.45709 | 13.24606 | 34765 ft | 431 kts | 132° |
| 2026-05-06 19:28 | 49.42282 | 13.32093 | 34761 ft | 431 kts | 132° |
| 2026-05-06 19:28 | 49.38836 | 13.39606 | 34769 ft | 430 kts | 132° |
| 2026-05-06 19:29 | 49.35383 | 13.47104 | 34744 ft | 429 kts | 132° |
| 2026-05-06 19:29 | 49.31932 | 13.54567 | 34742 ft | 429 kts | 133° |
| 2026-05-06 19:30 | 49.28478 | 13.62022 | 34749 ft | 429 kts | 133° |
| 2026-05-06 19:30 | 49.25017 | 13.69467 | 34747 ft | 429 kts | 133° |
| 2026-05-06 19:31 | 49.21553 | 13.76901 | 34754 ft | 429 kts | 133° |
| 2026-05-06 19:31 | 49.16344 | 13.88038 | 34724 ft | 429 kts | 133° |
| 2026-05-06 19:32 | 49.12871 | 13.95444 | 34728 ft | 429 kts | 133° |
| 2026-05-06 19:32 | 49.09394 | 14.02844 | 34722 ft | 429 kts | 133° |
| 2026-05-06 19:33 | 49.05905 | 14.10239 | 34515 ft | 428 kts | 133° |
| 2026-05-06 19:33 | 49.04172 | 14.13913 | 34276 ft | 426 kts | 134° |
| 2026-05-06 19:33 | 49.02449 | 14.17564 | 34012 ft | 422 kts | 134° |
| 2026-05-06 19:34 | 49.00740 | 14.21183 | 33431 ft | 420 kts | 134° |
| 2026-05-06 19:34 | 48.99045 | 14.24768 | 32970 ft | 415 kts | 134° |
| 2026-05-06 19:34 | 48.97364 | 14.28309 | 32481 ft | 411 kts | 134° |
| 2026-05-06 19:34 | 48.95690 | 14.31820 | 31991 ft | 408 kts | 134° |
| 2026-05-06 19:35 | 48.94024 | 14.35294 | 31502 ft | 404 kts | 134° |
| 2026-05-06 19:35 | 48.92347 | 14.38690 | 31029 ft | 400 kts | 135° |
| 2026-05-06 19:35 | 48.90656 | 14.42035 | 30571 ft | 397 kts | 135° |
| 2026-05-06 19:35 | 48.88987 | 14.45307 | 30384 ft | 389 kts | 135° |
| 2026-05-06 19:36 | 48.87305 | 14.48581 | 30136 ft | 395 kts | 135° |
| 2026-05-06 19:36 | 48.85611 | 14.51879 | 29893 ft | 396 kts | 135° |
| 2026-05-06 19:36 | 48.83925 | 14.55181 | 29630 ft | 396 kts | 135° |
| 2026-05-06 19:36 | 48.82247 | 14.58480 | 29213 ft | 394 kts | 135° |
| 2026-05-06 19:37 | 48.80578 | 14.61772 | 28801 ft | 392 kts | 135° |
| 2026-05-06 19:37 | 48.78948 | 14.64994 | 28380 ft | 389 kts | 135° |
| 2026-05-06 19:37 | 48.77305 | 14.68235 | 27961 ft | 386 kts | 135° |
| 2026-05-06 19:37 | 48.76200 | 14.70408 | 27669 ft | 384 kts | 135° |
| 2026-05-06 19:38 | 48.74026 | 14.74672 | 27094 ft | 380 kts | 135° |
| 2026-05-06 19:38 | 48.72437 | 14.77774 | 26666 ft | 377 kts | 135° |
| 2026-05-06 19:38 | 48.70835 | 14.80898 | 26231 ft | 374 kts | 135° |
| 2026-05-06 19:38 | 48.69243 | 14.84004 | 25792 ft | 372 kts | 135° |
| 2026-05-06 19:39 | 48.67665 | 14.87080 | 25334 ft | 369 kts | 135° |
| 2026-05-06 19:39 | 48.66095 | 14.90139 | 24887 ft | 367 kts | 135° |
| 2026-05-06 19:39 | 48.64532 | 14.93182 | 24395 ft | 366 kts | 135° |
| 2026-05-06 19:39 | 48.62977 | 14.96201 | 23948 ft | 363 kts | 135° |
| 2026-05-06 19:40 | 48.61431 | 14.99195 | 23631 ft | 356 kts | 136° |
| 2026-05-06 19:40 | 48.59680 | 15.01669 | 23320 ft | 336 kts | 155° |
| 2026-05-06 19:40 | 48.57576 | 15.02923 | 22876 ft | 321 kts | 173° |
| 2026-05-06 19:40 | 48.56102 | 15.03360 | 22531 ft | 319 kts | 175° |
| 2026-05-06 19:41 | 48.53922 | 15.03927 | 22066 ft | 317 kts | 175° |
| 2026-05-06 19:41 | 48.51780 | 15.04467 | 21591 ft | 316 kts | 175° |
| 2026-05-06 19:41 | 48.49618 | 15.05004 | 21148 ft | 314 kts | 175° |
| 2026-05-06 19:41 | 48.47468 | 15.05535 | 20717 ft | 312 kts | 175° |
| 2026-05-06 19:42 | 48.45331 | 15.06061 | 20311 ft | 311 kts | 175° |
| 2026-05-06 19:42 | 48.43205 | 15.06583 | 19913 ft | 309 kts | 175° |
| 2026-05-06 19:42 | 48.41088 | 15.07102 | 19523 ft | 307 kts | 175° |
| 2026-05-06 19:42 | 48.38988 | 15.07616 | 19143 ft | 306 kts | 175° |
| 2026-05-06 19:43 | 48.36894 | 15.08126 | 18754 ft | 304 kts | 175° |
| 2026-05-06 19:43 | 48.34829 | 15.08842 | 18389 ft | 308 kts | 162° |
| 2026-05-06 19:43 | 48.33005 | 15.10595 | 18046 ft | 318 kts | 141° |
| 2026-05-06 19:43 | 48.31602 | 15.13206 | 17748 ft | 324 kts | 133° |
| 2026-05-06 19:44 | 48.30263 | 15.15942 | 17752 ft | 326 kts | 132° |
| 2026-05-06 19:44 | 48.28926 | 15.18694 | 17727 ft | 327 kts | 131° |
| 2026-05-06 19:44 | 48.27579 | 15.21461 | 17588 ft | 329 kts | 131° |
| 2026-05-06 19:44 | 48.26232 | 15.24222 | 17327 ft | 327 kts | 131° |
| 2026-05-06 19:45 | 48.24887 | 15.26970 | 17062 ft | 326 kts | 131° |
| 2026-05-06 19:45 | 48.23546 | 15.29706 | 16827 ft | 325 kts | 131° |
| 2026-05-06 19:45 | 48.22209 | 15.32427 | 16740 ft | 324 kts | 131° |
| 2026-05-06 19:45 | 48.20866 | 15.35146 | 16754 ft | 325 kts | 131° |
| 2026-05-06 19:46 | 48.19523 | 15.37863 | 16760 ft | 325 kts | 131° |
| 2026-05-06 19:46 | 48.18180 | 15.40585 | 16759 ft | 325 kts | 131° |
| 2026-05-06 19:46 | 48.16837 | 15.43307 | 16664 ft | 326 kts | 131° |
| 2026-05-06 19:46 | 48.15493 | 15.46024 | 16396 ft | 323 kts | 131° |
| 2026-05-06 19:47 | 48.14155 | 15.48725 | 16138 ft | 322 kts | 131° |
| 2026-05-06 19:47 | 48.12822 | 15.51414 | 15887 ft | 321 kts | 131° |
| 2026-05-06 19:47 | 48.11495 | 15.54092 | 15616 ft | 319 kts | 131° |
| 2026-05-06 19:47 | 48.10173 | 15.56757 | 15372 ft | 318 kts | 131° |
| 2026-05-06 19:48 | 48.08855 | 15.59405 | 15123 ft | 317 kts | 131° |
| 2026-05-06 19:48 | 48.07540 | 15.62043 | 14877 ft | 316 kts | 130° |
| 2026-05-06 19:48 | 48.06231 | 15.64675 | 14627 ft | 315 kts | 130° |
| 2026-05-06 19:48 | 48.04927 | 15.67299 | 14394 ft | 313 kts | 130° |
| 2026-05-06 19:49 | 48.03631 | 15.69903 | 14155 ft | 312 kts | 131° |
| 2026-05-06 19:49 | 48.02338 | 15.72499 | 13917 ft | 311 kts | 130° |
| 2026-05-06 19:49 | 48.01049 | 15.75083 | 13680 ft | 310 kts | 131° |
| 2026-05-06 19:49 | 47.99763 | 15.77652 | 13420 ft | 308 kts | 130° |
| 2026-05-06 19:50 | 47.98481 | 15.80216 | 13183 ft | 309 kts | 132° |
| 2026-05-06 19:50 | 47.97466 | 15.83111 | 12902 ft | 324 kts | 112° |
| 2026-05-06 19:50 | 47.96925 | 15.86341 | 12646 ft | 325 kts | 107° |
| 2026-05-06 19:50 | 47.96406 | 15.89658 | 12371 ft | 323 kts | 107° |
| 2026-05-06 19:51 | 47.95912 | 15.92858 | 12118 ft | 319 kts | 107° |
| 2026-05-06 19:51 | 47.95414 | 15.96076 | 11864 ft | 318 kts | 107° |
| 2026-05-06 19:51 | 47.94915 | 15.99273 | 11605 ft | 316 kts | 106° |
| 2026-05-06 19:51 | 47.94418 | 16.02447 | 11357 ft | 314 kts | 107° |
| 2026-05-06 19:52 | 47.93921 | 16.05616 | 11104 ft | 314 kts | 107° |
| 2026-05-06 19:52 | 47.93423 | 16.08784 | 10863 ft | 313 kts | 106° |
| 2026-05-06 19:52 | 47.92926 | 16.11938 | 10620 ft | 312 kts | 107° |
| 2026-05-06 19:52 | 47.92429 | 16.15077 | 10373 ft | 311 kts | 106° |
| 2026-05-06 19:53 | 47.91942 | 16.18213 | 10133 ft | 312 kts | 104° |
| 2026-05-06 19:53 | 47.91914 | 16.21449 | 9994 ft | 316 kts | 82° |
| 2026-05-06 19:53 | 47.92327 | 16.24661 | 10020 ft | 315 kts | 80° |
| 2026-05-06 19:53 | 47.92749 | 16.27838 | 9989 ft | 310 kts | 80° |
| 2026-05-06 19:54 | 47.93168 | 16.30988 | 9986 ft | 310 kts | 81° |
| 2026-05-06 19:54 | 47.93590 | 16.34165 | 9996 ft | 314 kts | 82° |
| 2026-05-06 19:54 | 47.94015 | 16.37374 | 9999 ft | 315 kts | 82° |
| 2026-05-06 19:54 | 47.94439 | 16.40576 | 9999 ft | 315 kts | 82° |
| 2026-05-06 19:55 | 47.94865 | 16.43781 | 9999 ft | 315 kts | 82° |
| 2026-05-06 19:55 | 47.95291 | 16.46991 | 10004 ft | 315 kts | 82° |
| 2026-05-06 19:55 | 47.95715 | 16.50201 | 10007 ft | 316 kts | 82° |
| 2026-05-06 19:55 | 47.96141 | 16.53415 | 10013 ft | 316 kts | 82° |
| 2026-05-06 19:56 | 47.96563 | 16.56625 | 10003 ft | 316 kts | 82° |
| 2026-05-06 19:56 | 47.96982 | 16.59833 | 10003 ft | 312 kts | 82° |
| 2026-05-06 19:56 | 47.97452 | 16.62907 | 10001 ft | 297 kts | 72° |
| 2026-05-06 19:56 | 47.98441 | 16.65537 | 10003 ft | 288 kts | 50° |
| 2026-05-06 19:57 | 47.99951 | 16.67453 | 10014 ft | 284 kts | 27° |
| 2026-05-06 19:57 | 48.01789 | 16.68443 | 10007 ft | 279 kts | 4° |
| 2026-05-06 19:57 | 48.03699 | 16.68472 | 10012 ft | 274 kts | 351° |
| 2026-05-06 19:57 | 48.05583 | 16.68257 | 10002 ft | 275 kts | 351° |
| 2026-05-06 19:58 | 48.07497 | 16.68045 | 9916 ft | 276 kts | 351° |
| 2026-05-06 19:58 | 48.09404 | 16.67840 | 9802 ft | 274 kts | 351° |
| 2026-05-06 19:58 | 48.11304 | 16.67635 | 9683 ft | 274 kts | 352° |
| 2026-05-06 19:58 | 48.13199 | 16.67428 | 9556 ft | 273 kts | 352° |
| 2026-05-06 19:59 | 48.15095 | 16.67220 | 9428 ft | 274 kts | 351° |
| 2026-05-06 19:59 | 48.16991 | 16.67011 | 9297 ft | 272 kts | 351° |
| 2026-05-06 19:59 | 48.18877 | 16.66802 | 9166 ft | 272 kts | 351° |
| 2026-05-06 19:59 | 48.20738 | 16.66600 | 9025 ft | 262 kts | 351° |
| 2026-05-06 20:00 | 48.22493 | 16.66292 | 8900 ft | 248 kts | 343° |
| 2026-05-06 20:00 | 48.24146 | 16.65655 | 8772 ft | 244 kts | 338° |
| 2026-05-06 20:00 | 48.25778 | 16.64965 | 8643 ft | 243 kts | 338° |
| 2026-05-06 20:00 | 48.27426 | 16.64363 | 8509 ft | 247 kts | 351° |
| 2026-05-06 20:01 | 48.29145 | 16.64693 | 8389 ft | 253 kts | 12° |
| 2026-05-06 20:01 | 48.30833 | 16.65470 | 8243 ft | 254 kts | 15° |
| 2026-05-06 20:01 | 48.32507 | 16.66285 | 8044 ft | 253 kts | 15° |
| 2026-05-06 20:01 | 48.34186 | 16.67097 | 7843 ft | 253 kts | 15° |
| 2026-05-06 20:02 | 48.35857 | 16.67905 | 7599 ft | 252 kts | 15° |
| 2026-05-06 20:02 | 48.37531 | 16.68686 | 7344 ft | 251 kts | 9° |
| 2026-05-06 20:02 | 48.39242 | 16.68751 | 7102 ft | 244 kts | 349° |
| 2026-05-06 20:02 | 48.40920 | 16.68401 | 6811 ft | 244 kts | 346° |
| 2026-05-06 20:03 | 48.42604 | 16.67996 | 6521 ft | 245 kts | 346° |
| 2026-05-06 20:03 | 48.44295 | 16.67584 | 6260 ft | 245 kts | 346° |
| 2026-05-06 20:03 | 48.45964 | 16.67183 | 6120 ft | 242 kts | 346° |
| 2026-05-06 20:03 | 48.47621 | 16.66788 | 6012 ft | 241 kts | 346° |
| 2026-05-06 20:04 | 48.49276 | 16.66394 | 5982 ft | 240 kts | 346° |
| 2026-05-06 20:04 | 48.50929 | 16.65999 | 5986 ft | 241 kts | 346° |
| 2026-05-06 20:04 | 48.52608 | 16.66030 | 5980 ft | 246 kts | 12° |
| 2026-05-06 20:04 | 48.54232 | 16.66859 | 5993 ft | 247 kts | 20° |
| 2026-05-06 20:05 | 48.55832 | 16.67787 | 5989 ft | 246 kts | 16° |
| 2026-05-06 20:05 | 48.57506 | 16.68031 | 6002 ft | 240 kts | 350° |
| 2026-05-06 20:05 | 48.59139 | 16.67678 | 5985 ft | 235 kts | 346° |
| 2026-05-06 20:05 | 48.60641 | 16.66864 | 5984 ft | 225 kts | 317° |
| 2026-05-06 20:06 | 48.61661 | 16.65157 | 5982 ft | 218 kts | 298° |
| 2026-05-06 20:06 | 48.62439 | 16.63206 | 5981 ft | 213 kts | 283° |
| 2026-05-06 20:06 | 48.62524 | 16.61077 | 5982 ft | 202 kts | 250° |
| 2026-05-06 20:06 | 48.61824 | 16.59288 | 5987 ft | 199 kts | 229° |
| 2026-05-06 20:07 | 48.60774 | 16.57928 | 5906 ft | 200 kts | 213° |
| 2026-05-06 20:07 | 48.59581 | 16.56824 | 5585 ft | 203 kts | 211° |
| 2026-05-06 20:07 | 48.58357 | 16.55772 | 5363 ft | 201 kts | 211° |
| 2026-05-06 20:07 | 48.57147 | 16.54766 | 5188 ft | 196 kts | 210° |
| 2026-05-06 20:08 | 48.55970 | 16.53780 | 5083 ft | 190 kts | 210° |
| 2026-05-06 20:08 | 48.54843 | 16.52838 | 5007 ft | 181 kts | 213° |
| 2026-05-06 20:08 | 48.53725 | 16.51956 | 4991 ft | 183 kts | 211° |
| 2026-05-06 20:08 | 48.52588 | 16.51081 | 4985 ft | 183 kts | 210° |
| 2026-05-06 20:09 | 48.51455 | 16.50210 | 4987 ft | 183 kts | 211° |
| 2026-05-06 20:09 | 48.50319 | 16.49338 | 4984 ft | 183 kts | 210° |
| 2026-05-06 20:09 | 48.49180 | 16.48455 | 4986 ft | 184 kts | 211° |
| 2026-05-06 20:09 | 48.48040 | 16.47569 | 4986 ft | 184 kts | 211° |
| 2026-05-06 20:10 | 48.46907 | 16.46693 | 4989 ft | 183 kts | 211° |
| 2026-05-06 20:10 | 48.45787 | 16.45838 | 4990 ft | 183 kts | 210° |
| 2026-05-06 20:10 | 48.44654 | 16.44979 | 4987 ft | 183 kts | 207° |
| 2026-05-06 20:10 | 48.43395 | 16.44589 | 4990 ft | 190 kts | 184° |
| 2026-05-06 20:11 | 48.42086 | 16.44979 | 4990 ft | 193 kts | 169° |
| 2026-05-06 20:11 | 48.40795 | 16.45538 | 4990 ft | 193 kts | 169° |
| 2026-05-06 20:11 | 48.39499 | 16.46097 | 4993 ft | 194 kts | 169° |
| 2026-05-06 20:11 | 48.38205 | 16.46652 | 4991 ft | 193 kts | 169° |
| 2026-05-06 20:12 | 48.36905 | 16.47208 | 4995 ft | 195 kts | 169° |
| 2026-05-06 20:12 | 48.35600 | 16.47766 | 4995 ft | 195 kts | 169° |
| 2026-05-06 20:12 | 48.34296 | 16.48324 | 4970 ft | 195 kts | 169° |
| 2026-05-06 20:12 | 48.32993 | 16.48880 | 4792 ft | 194 kts | 170° |
| 2026-05-06 20:13 | 48.31701 | 16.49432 | 4568 ft | 192 kts | 170° |
| 2026-05-06 20:13 | 48.30418 | 16.49980 | 4313 ft | 191 kts | 170° |
| 2026-05-06 20:13 | 48.29148 | 16.50522 | 4065 ft | 189 kts | 170° |
| 2026-05-06 20:13 | 48.27896 | 16.51056 | 3803 ft | 184 kts | 171° |
| 2026-05-06 20:14 | 48.26691 | 16.51571 | 3557 ft | 176 kts | 172° |
| 2026-05-06 20:14 | 48.25532 | 16.52065 | 3338 ft | 171 kts | 172° |
| 2026-05-06 20:14 | 48.24409 | 16.52542 | 3115 ft | 165 kts | 172° |
| 2026-05-06 20:14 | 48.23312 | 16.53008 | 2901 ft | 162 kts | 172° |
| 2026-05-06 20:15 | 48.22244 | 16.53463 | 2688 ft | 155 kts | 172° |
| 2026-05-06 20:15 | 48.21253 | 16.53887 | 2490 ft | 142 kts | 173° |
| 2026-05-06 20:15 | 48.20341 | 16.54275 | 2310 ft | 132 kts | 174° |
| 2026-05-06 20:15 | 48.19484 | 16.54638 | 2148 ft | 125 kts | 173° |
| 2026-05-06 20:16 | 48.18650 | 16.54990 | 1983 ft | 124 kts | 172° |
| 2026-05-06 20:16 | 48.17814 | 16.55342 | 1812 ft | 126 kts | 172° |
| 2026-05-06 20:16 | 48.16985 | 16.55695 | 1668 ft | 123 kts | 171° |
| 2026-05-06 20:16 | 48.16165 | 16.56042 | 1477 ft | 122 kts | 169° |
| 2026-05-06 20:17 | 48.15325 | 16.56397 | 1325 ft | 126 kts | 166° |
| 2026-05-06 20:17 | 48.14479 | 16.56756 | 1149 ft | 126 kts | 166° |
| 2026-05-06 20:17 | 48.13647 | 16.57112 | 997 ft | 124 kts | 165° |
| 2026-05-06 20:17 | 48.12832 | 16.57460 | 799 ft | 123 kts | 164° |
| 2026-05-06 20:18 | 48.11989 | 16.57816 | 669 ft | 124 kts | 163° |
| 2026-05-06 20:18 | 48.11203 | 16.58135 | 617 ft | 107 kts | 164° |
| 2026-05-06 20:18 | 48.10775 | 16.58321 | 618 ft | 21 kts | 163° |
| 2026-05-06 20:18 | 48.10590 | 16.58400 | 612 ft | 49 kts | 166° |
| 2026-05-06 20:19 | 48.10290 | 16.58486 | 609 ft | 35 kts | 191° |
| 2026-05-06 20:19 | 48.10145 | 16.58387 | 621 ft | 16 kts | 232° |
| 2026-05-06 20:19 | 48.10116 | 16.58279 | 615 ft | 9 kts | 205° |
| 2026-05-06 20:19 | 48.10110 | 16.58201 | 620 ft | 8 kts | 313° |
| 2026-05-06 20:20 | 48.10158 | 16.58169 | 612 ft | 7 kts | 340° |
| 2026-05-06 20:20 | 48.10204 | 16.58148 | 617 ft | 7 kts | 344° |
| 2026-05-06 20:20 | 48.10245 | 16.58131 | 618 ft | 1 kts | 344° |
| 2026-05-06 20:20 | 48.10260 | 16.58125 | 611 ft | 3 kts | 344° |
| 2026-05-06 20:21 | 48.10282 | 16.58115 | 613 ft | 4 kts | 344° |
| 2026-05-06 20:21 | 48.10290 | 16.58112 | 611 ft | 2 kts | 344° |
| 2026-05-06 20:21 | 48.10293 | 16.58111 | 617 ft | 2 kts | 344° |
| 2026-05-06 20:22 | 48.10296 | 16.58110 | 616 ft | 0 kts | 344° |
| 2026-05-06 20:23 | 48.10301 | 16.58107 | 613 ft | 4 kts | 345° |
| 2026-05-06 20:23 | 48.10375 | 16.58077 | 611 ft | 14 kts | 343° |
| 2026-05-06 20:23 | 48.10469 | 16.58036 | 619 ft | 14 kts | 344° |
| 2026-05-06 20:24 | 48.10560 | 16.57998 | 618 ft | 13 kts | 344° |
| 2026-05-06 20:24 | 48.10646 | 16.57961 | 617 ft | 13 kts | 343° |
| 2026-05-06 20:24 | 48.10728 | 16.57924 | 619 ft | 12 kts | 343° |
| 2026-05-06 20:24 | 48.10806 | 16.57890 | 617 ft | 11 kts | 346° |
| 2026-05-06 20:25 | 48.10881 | 16.57862 | 614 ft | 11 kts | 345° |
| 2026-05-06 20:25 | 48.10952 | 16.57831 | 615 ft | 11 kts | 343° |
| 2026-05-06 20:25 | 48.11026 | 16.57792 | 614 ft | 12 kts | 330° |
| 2026-05-06 20:25 | 48.11072 | 16.57697 | 619 ft | 11 kts | 297° |
| 2026-05-06 20:26 | 48.11105 | 16.57596 | 625 ft | 11 kts | 296° |
| 2026-05-06 20:26 | 48.11137 | 16.57499 | 616 ft | 10 kts | 296° |
| 2026-05-06 20:26 | 48.11166 | 16.57406 | 616 ft | 10 kts | 295° |
| 2026-05-06 20:26 | 48.11195 | 16.57317 | 614 ft | 11 kts | 296° |
| 2026-05-06 20:27 | 48.11232 | 16.57204 | 625 ft | 12 kts | 295° |
| 2026-05-06 20:27 | 48.11267 | 16.57096 | 621 ft | 11 kts | 296° |
| 2026-05-06 20:27 | 48.11301 | 16.56992 | 619 ft | 11 kts | 296° |
| 2026-05-06 20:27 | 48.11323 | 16.56926 | 619 ft | 11 kts | 296° |
| 2026-05-06 20:28 | 48.11361 | 16.56837 | 619 ft | 10 kts | 322° |
| 2026-05-06 20:28 | 48.11422 | 16.56841 | 619 ft | 9 kts | 24° |
| 2026-05-06 20:28 | 48.11476 | 16.56879 | 616 ft | 9 kts | 25° |
| 2026-05-06 20:28 | 48.11531 | 16.56914 | 614 ft | 8 kts | 14° |
| 2026-05-06 20:29 | 48.11588 | 16.56912 | 619 ft | 8 kts | 8° |
| 2026-05-06 20:29 | 48.11637 | 16.56940 | 616 ft | 7 kts | 25° |
| 2026-05-06 20:29 | 48.11659 | 16.56956 | 619 ft | 0 kts | 26° |